createdAt,value
2022-08-25T00:01:42.325Z,101373.75
2022-08-25T00:04:29.564Z,101361.16
2022-08-25T00:07:18.601Z,101377.56
2022-08-25T00:10:06.587Z,101360.31
2022-08-25T00:12:51.699Z,101366.78
2022-08-25T00:15:38.290Z,101360.56
2022-08-25T00:18:23.436Z,101345.78
2022-08-25T00:21:09.221Z,101351.28
2022-08-25T00:23:54.680Z,101348.06
2022-08-25T00:26:42.382Z,101350.03
2022-08-25T00:29:29.826Z,101337.47
2022-08-25T00:32:15.601Z,101335.44
2022-08-25T00:35:01.068Z,101336.56
2022-08-25T00:37:46.462Z,101341.09
2022-08-25T00:40:31.780Z,101342.94
2022-08-25T00:43:17.490Z,101342.25
2022-08-25T00:46:02.872Z,101336.66
2022-08-25T00:48:53.631Z,101339.53
2022-08-25T00:51:50.276Z,101331.84
2022-08-25T00:54:55.229Z,101322.06
2022-08-25T00:57:45.826Z,101330.59
2022-08-25T01:00:41.076Z,101319.41
2022-08-25T01:03:35.567Z,101315.06
2022-08-25T01:06:21.669Z,101311.41
2022-08-25T01:09:07.521Z,101294.38
2022-08-25T01:11:52.937Z,101293.56
2022-08-25T01:14:38.319Z,101306.53
2022-08-25T01:17:23.315Z,101313.69
2022-08-25T01:20:09.266Z,101316.25
2022-08-25T01:22:55.219Z,101317.56
2022-08-25T01:25:51.561Z,101316.91
2022-08-25T01:28:38.246Z,101324.66
2022-08-25T01:31:24.456Z,101322.44
2022-08-25T01:34:12.323Z,101322.97
2022-08-25T01:36:59.615Z,101317.00
2022-08-25T01:39:45.254Z,101317.00
2022-08-25T01:43:06.355Z,101301.88
2022-08-25T01:45:51.487Z,101296.78
2022-08-25T01:48:36.741Z,101294.53
2022-08-25T01:51:25.212Z,101287.63
2022-08-25T01:54:10.789Z,101266.06
2022-08-25T01:56:55.986Z,101270.31
2022-08-25T01:59:41.282Z,101260.91
2022-08-25T02:02:26.461Z,101266.78
2022-08-25T02:05:14.065Z,101266.91
2022-08-25T02:07:59.183Z,101268.34
2022-08-25T02:10:44.400Z,101261.44
2022-08-25T02:13:31.607Z,101255.75
2022-08-25T02:16:25.527Z,101231.28
2022-08-25T02:19:14.534Z,101235.06
2022-08-25T02:22:00.146Z,101235.13
2022-08-25T02:24:45.223Z,101243.28
2022-08-25T02:27:30.287Z,101241.75
2022-08-25T02:30:16.924Z,101240.47
2022-08-25T02:33:02.092Z,101218.59
2022-08-25T02:35:47.401Z,101219.34
2022-08-25T02:38:32.353Z,101214.81
2022-08-25T02:41:21.443Z,101219.84
2022-08-25T02:44:08.313Z,101214.88
2022-08-25T02:46:53.616Z,101222.72
2022-08-25T02:49:39.159Z,101223.69
2022-08-25T02:52:25.218Z,101218.53
2022-08-25T02:55:14.302Z,101219.03
2022-08-25T02:57:59.671Z,101226.34
2022-08-25T03:00:45.994Z,101221.00
2022-08-25T03:03:32.834Z,101210.69
2022-08-25T03:06:25.183Z,101211.38
2022-08-25T03:09:10.841Z,101222.53
2022-08-25T03:11:55.989Z,101216.06
2022-08-25T03:14:41.184Z,101220.66
2022-08-25T03:17:29.492Z,101224.59
2022-08-25T03:20:15.896Z,101220.41
2022-08-25T03:23:02.826Z,101226.72
2022-08-25T03:26:06.281Z,101213.63
2022-08-25T03:28:51.661Z,101199.31
2022-08-25T03:31:37.349Z,101193.63
2022-08-25T03:34:23.031Z,101192.50
2022-08-25T03:37:08.457Z,101192.69
2022-08-25T03:39:53.765Z,101191.19
2022-08-25T03:42:45.165Z,101198.47
2022-08-25T03:45:30.362Z,101202.81
2022-08-25T03:48:17.524Z,101203.63
2022-08-25T03:51:02.492Z,101205.84
2022-08-25T03:53:47.993Z,101203.19
2022-08-25T03:56:33.481Z,101204.47
2022-08-25T03:59:19.003Z,101193.84
2022-08-25T04:02:05.856Z,101215.78
2022-08-25T04:04:50.703Z,101221.25
2022-08-25T04:07:36.188Z,101223.91
2022-08-25T04:10:21.598Z,101230.75
2022-08-25T04:13:07.231Z,101232.44
2022-08-25T04:15:52.202Z,101231.44
2022-08-25T04:18:37.169Z,101213.06
2022-08-25T04:21:24.179Z,101221.81
2022-08-25T04:24:11.036Z,101207.50
2022-08-25T04:26:56.326Z,101208.25
2022-08-25T04:29:41.458Z,101222.06
2022-08-25T04:32:26.714Z,101230.91
2022-08-25T04:35:12.034Z,101233.56
2022-08-25T04:37:57.270Z,101241.81
2022-08-25T04:40:42.490Z,101231.19
2022-08-25T04:43:27.691Z,101258.22
2022-08-25T04:46:20.373Z,101300.09
2022-08-25T04:49:05.902Z,101341.94
2022-08-25T04:51:51.286Z,101334.41
2022-08-25T04:54:37.330Z,101389.06
2022-08-25T04:57:22.698Z,101429.94
2022-08-25T05:00:08.984Z,101420.69
2022-08-25T05:02:55.393Z,101319.63
2022-08-25T05:05:40.638Z,101304.00
2022-08-25T05:08:26.111Z,101310.22
2022-08-25T05:11:14.326Z,101293.88
2022-08-25T05:14:01.409Z,101287.94
2022-08-25T05:16:46.377Z,101289.47
2022-08-25T05:19:31.805Z,101278.91
2022-08-25T05:22:17.144Z,101289.63
2022-08-25T05:25:03.262Z,101290.44
2022-08-25T05:27:48.237Z,101279.63
2022-08-25T05:30:33.141Z,101297.09
2022-08-25T05:33:18.467Z,101325.63
2022-08-25T05:36:04.907Z,101355.34
2022-08-25T05:38:50.386Z,101340.81
2022-08-25T05:41:35.863Z,101325.75
2022-08-25T05:44:21.490Z,101339.31
2022-08-25T05:47:06.871Z,101342.28
2022-08-25T05:49:52.284Z,101323.38
2022-08-25T05:52:37.719Z,101304.19
2022-08-25T05:55:23.046Z,101299.97
2022-08-25T05:58:08.357Z,101307.50
2022-08-25T06:00:58.664Z,101284.56
2022-08-25T06:03:43.747Z,101282.16
2022-08-25T06:06:29.273Z,101275.53
2022-08-25T06:09:14.537Z,101277.22
2022-08-25T06:11:59.541Z,101259.91
2022-08-25T06:14:45.308Z,101275.22
2022-08-25T06:17:31.280Z,101259.97
2022-08-25T06:20:19.100Z,101257.31
2022-08-25T06:23:07.388Z,101257.50
2022-08-25T06:25:53.968Z,101260.16
2022-08-25T06:28:39.313Z,101289.38
2022-08-25T06:31:24.565Z,101314.03
2022-08-25T06:34:10.424Z,101351.25
2022-08-25T06:36:55.747Z,101385.38
2022-08-25T06:39:41.012Z,101399.94
2022-08-25T06:42:26.569Z,101420.66
2022-08-25T06:45:11.629Z,101406.84
2022-08-25T06:47:57.848Z,101414.34
2022-08-25T06:50:43.552Z,101422.19
2022-08-25T06:53:28.499Z,101402.88
2022-08-25T06:56:14.145Z,101407.78
2022-08-25T06:59:01.522Z,101394.50
2022-08-25T07:01:47.048Z,101378.69
2022-08-25T07:04:34.966Z,101373.34
2022-08-25T07:07:20.174Z,101361.56
2022-08-25T07:10:06.172Z,101339.38
2022-08-25T07:12:51.786Z,101362.81
2022-08-25T07:15:41.316Z,101387.97
2022-08-25T07:18:27.068Z,101406.34
2022-08-25T07:21:14.070Z,101385.13
2022-08-25T07:24:03.387Z,101400.63
2022-08-25T07:26:48.848Z,101390.31
2022-08-25T07:29:36.692Z,101374.66
2022-08-25T07:32:27.292Z,101375.19
2022-08-25T07:35:16.074Z,101379.38
2022-08-25T07:38:06.892Z,101369.28
2022-08-25T07:41:03.286Z,101360.88
2022-08-25T07:43:48.716Z,101354.28
2022-08-25T07:46:35.726Z,101345.72
2022-08-25T07:49:24.196Z,101336.31
2022-08-25T07:52:09.832Z,101335.47
2022-08-25T07:54:55.958Z,101340.06
2022-08-25T07:57:42.434Z,101320.06
2022-08-25T08:00:30.196Z,101320.97
2022-08-25T08:03:35.334Z,101321.84
2022-08-25T08:06:23.407Z,101315.38
2022-08-25T08:09:09.439Z,101322.22
2022-08-25T08:11:54.621Z,101326.69
2022-08-25T08:14:44.989Z,101324.03
2022-08-25T08:17:31.909Z,101313.84
2022-08-25T08:20:17.681Z,101324.56
2022-08-25T08:23:08.168Z,101327.22
2022-08-25T08:25:53.442Z,101331.41
2022-08-25T08:28:38.730Z,101339.19
2022-08-25T08:31:26.895Z,101339.19
2022-08-25T08:34:12.381Z,101346.03
2022-08-25T08:36:58.448Z,101356.97
2022-08-25T08:39:43.326Z,101351.97
2022-08-25T08:42:56.030Z,101367.06
2022-08-25T08:45:50.288Z,101370.19
2022-08-25T08:48:44.648Z,101365.72
2022-08-25T08:51:37.692Z,101363.91
2022-08-25T08:54:26.530Z,101372.13
2022-08-25T08:57:17.553Z,101374.66
2022-08-25T09:00:05.660Z,101371.84
2022-08-25T09:02:55.193Z,101375.94
2022-08-25T09:05:50.541Z,101385.28
2022-08-25T09:08:37.533Z,101393.81
2022-08-25T09:11:35.538Z,101395.06
2022-08-25T09:14:20.693Z,101400.19
2022-08-25T09:17:27.441Z,101408.19
2022-08-25T09:20:29.606Z,101400.06
2022-08-25T09:23:45.951Z,101406.78
2022-08-25T09:26:39.661Z,101405.16
2022-08-25T09:29:46.203Z,101405.72
2022-08-25T09:32:35.955Z,101410.16
2022-08-25T09:35:26.176Z,101426.53
2022-08-25T09:38:13.228Z,101413.38
2022-08-25T09:41:01.024Z,101397.13
2022-08-25T09:43:53.531Z,101407.97
2022-08-25T09:46:38.800Z,101403.34
2022-08-25T09:49:33.302Z,101394.28
2022-08-25T09:52:34.091Z,101398.66
2022-08-25T09:55:32.605Z,101410.19
2022-08-25T09:58:24.129Z,101413.25
2022-08-25T10:01:27.420Z,101421.34
2022-08-25T10:04:36.977Z,101430.88
2022-08-25T10:07:29.518Z,101434.16
2022-08-25T10:10:38.222Z,101428.28
2022-08-25T10:13:40.561Z,101411.56
2022-08-25T10:16:36.299Z,101424.19
2022-08-25T10:19:21.818Z,101411.91
2022-08-25T10:22:20.486Z,101395.25
2022-08-25T10:25:08.690Z,101396.94
2022-08-25T10:27:54.473Z,101409.44
2022-08-25T10:31:16.627Z,101419.22
2022-08-25T10:34:17.538Z,101403.66
2022-08-25T10:37:10.856Z,101411.47
2022-08-25T10:40:09.810Z,101406.16
2022-08-25T10:43:23.687Z,101412.69
2022-08-25T10:46:37.083Z,101411.16
2022-08-25T10:49:54.684Z,101394.06
2022-08-25T10:53:17.443Z,101392.78
2022-08-25T10:56:11.588Z,101389.78
2022-08-25T10:59:18.128Z,101374.06
2022-08-25T11:02:42.228Z,101376.78
2022-08-25T11:05:49.002Z,101393.44
2022-08-25T11:08:45.981Z,101408.72
2022-08-25T11:11:45.122Z,101411.31
2022-08-25T11:14:43.006Z,101410.09
2022-08-25T11:17:53.798Z,101406.59
2022-08-25T11:20:46.565Z,101384.47
2022-08-25T11:23:38.472Z,101377.38
2022-08-25T11:26:36.683Z,101359.69
2022-08-25T11:29:26.993Z,101357.06
2022-08-25T11:32:12.172Z,101346.78
2022-08-25T11:35:01.070Z,101318.09
2022-08-25T11:38:00.034Z,101328.25
2022-08-25T11:41:04.494Z,101286.03
2022-08-25T11:44:10.888Z,101264.94
2022-08-25T11:47:24.439Z,101254.75
2022-08-25T11:50:29.864Z,101262.00
2022-08-25T11:53:31.252Z,101271.50
2022-08-25T11:56:34.877Z,101285.50
2022-08-25T11:59:57.419Z,101309.84
2022-08-25T12:02:48.636Z,101315.75
2022-08-25T12:06:11.047Z,101330.31
2022-08-25T12:09:04.841Z,101352.28
2022-08-25T12:11:55.380Z,101362.66
2022-08-25T12:14:45.500Z,101343.50
2022-08-25T12:17:38.552Z,101378.75
2022-08-25T12:20:53.307Z,101421.13
2022-08-25T12:24:05.805Z,101433.78
2022-08-25T12:26:57.975Z,101423.06
2022-08-25T12:29:49.985Z,101435.66
2022-08-25T12:33:13.270Z,101433.59
2022-08-25T12:36:11.506Z,101426.81
2022-08-25T12:39:24.643Z,101427.94
2022-08-25T12:42:25.337Z,101419.03
2022-08-25T12:45:26.107Z,101418.06
2022-08-25T12:48:26.275Z,101416.34
2022-08-25T12:51:20.937Z,101429.69
2022-08-25T12:54:22.832Z,101425.19
2022-08-25T12:57:52.318Z,101412.69
2022-08-25T13:01:10.263Z,101416.47
2022-08-25T13:04:33.847Z,101421.44
2022-08-25T13:07:25.904Z,101418.22
2022-08-25T13:10:20.508Z,101419.75
2022-08-25T13:13:11.790Z,101422.97
2022-08-25T13:16:07.164Z,101407.50
2022-08-25T13:18:52.374Z,101422.69
2022-08-25T13:21:40.887Z,101418.84
2022-08-25T13:24:29.688Z,101409.16
2022-08-25T13:27:27.278Z,101426.53
2022-08-25T13:30:24.627Z,101426.34
2022-08-25T13:33:20.177Z,101425.47
2022-08-25T13:36:23.993Z,101424.34
2022-08-25T13:39:15.849Z,101424.06
2022-08-25T13:42:04.872Z,101434.50
2022-08-25T13:44:52.359Z,101431.53
2022-08-25T13:47:43.740Z,101410.81
2022-08-25T13:50:37.641Z,101425.91
2022-08-25T13:53:25.849Z,101432.31
2022-08-25T13:56:11.675Z,101431.97
2022-08-25T13:59:04.266Z,101431.09
2022-08-25T14:01:50.213Z,101429.75
2022-08-25T14:04:50.653Z,101431.31
2022-08-25T14:07:37.107Z,101423.41
2022-08-25T14:10:32.929Z,101427.34
2022-08-25T14:13:30.969Z,101422.59
2022-08-25T14:16:22.687Z,101429.81
2022-08-25T14:19:19.888Z,101428.56
2022-08-25T14:22:05.700Z,101414.78
2022-08-25T14:24:52.833Z,101422.75
2022-08-25T14:28:03.552Z,101421.72
2022-08-25T14:31:05.133Z,101413.34
2022-08-25T14:34:09.979Z,101417.59
2022-08-25T14:36:59.896Z,101404.06
2022-08-25T14:39:45.606Z,101417.56
2022-08-25T14:42:31.705Z,101410.78
2022-08-25T14:45:18.560Z,101410.66
2022-08-25T14:48:10.613Z,101417.44
2022-08-25T14:50:58.765Z,101427.50
2022-08-25T14:53:44.421Z,101419.53
2022-08-25T14:56:31.121Z,101416.47
2022-08-25T14:59:17.018Z,101409.88
2022-08-25T15:02:02.404Z,101416.19
2022-08-25T15:04:57.013Z,101420.34
2022-08-25T15:08:01.568Z,101434.25
2022-08-25T15:10:47.151Z,101414.53
2022-08-25T15:13:32.814Z,101404.72
2022-08-25T15:16:33.815Z,101426.00
2022-08-25T15:19:23.469Z,101426.53
2022-08-25T15:22:09.127Z,101422.47
2022-08-25T15:24:55.997Z,101421.91
2022-08-25T15:27:41.293Z,101417.44
2022-08-25T15:30:30.873Z,101423.91
2022-08-25T15:33:17.429Z,101430.91
2022-08-25T15:36:02.706Z,101425.69
2022-08-25T15:38:48.797Z,101422.94
2022-08-25T15:41:35.001Z,101417.63
2022-08-25T15:44:25.102Z,101419.91
2022-08-25T15:47:14.450Z,101423.50
2022-08-25T15:50:14.684Z,101425.50
2022-08-25T15:53:00.080Z,101417.84
2022-08-25T15:55:45.324Z,101416.88
2022-08-25T15:58:33.218Z,101421.22
2022-08-25T16:01:21.731Z,101424.63
2022-08-25T16:04:10.626Z,101429.84
2022-08-25T16:06:56.026Z,101433.34
2022-08-25T16:09:41.450Z,101431.84
2022-08-25T16:12:26.719Z,101430.72
2022-08-25T16:15:12.988Z,101429.44
2022-08-25T16:18:00.388Z,101433.75
2022-08-25T16:20:47.498Z,101427.09
2022-08-25T16:23:33.144Z,101408.75
2022-08-25T16:26:19.150Z,101407.63
2022-08-25T16:29:06.403Z,101413.66
2022-08-25T16:31:54.985Z,101422.13
2022-08-25T16:34:40.998Z,101432.84
2022-08-25T16:37:26.421Z,101424.34
2022-08-25T16:40:14.645Z,101426.16
2022-08-25T16:42:59.934Z,101433.50
2022-08-25T16:45:45.377Z,101434.09
2022-08-25T16:48:30.809Z,101422.59
2022-08-25T16:51:22.458Z,101437.28
2022-08-25T16:54:30.024Z,101425.53
2022-08-25T16:57:15.278Z,101440.94
2022-08-25T17:00:00.371Z,101436.94
2022-08-25T17:02:45.806Z,101427.81
2022-08-25T17:05:33.309Z,101435.63
2022-08-25T17:08:30.839Z,101442.84
2022-08-25T17:11:23.862Z,101440.50
2022-08-25T17:14:11.159Z,101434.69
2022-08-25T17:16:56.490Z,101447.03
2022-08-25T17:19:45.439Z,101437.69
2022-08-25T17:22:31.249Z,101439.69
2022-08-25T17:25:17.720Z,101437.03
2022-08-25T17:28:04.636Z,101445.03
2022-08-25T17:30:52.050Z,101456.59
2022-08-25T17:33:37.944Z,101446.88
2022-08-25T17:36:27.114Z,101456.91
2022-08-25T17:39:14.323Z,101456.06
2022-08-25T17:41:59.569Z,101455.09
2022-08-25T17:44:45.015Z,101441.38
2022-08-25T17:47:30.238Z,101465.59
2022-08-25T17:50:15.285Z,101463.94
2022-08-25T17:53:03.602Z,101463.41
2022-08-25T17:55:58.652Z,101470.09
2022-08-25T17:58:44.538Z,101466.75
2022-08-25T18:01:31.956Z,101471.41
2022-08-25T18:04:19.492Z,101465.06
2022-08-25T18:07:05.132Z,101478.44
2022-08-25T18:09:50.327Z,101481.94
2022-08-25T18:12:36.642Z,101483.19
2022-08-25T18:15:22.910Z,101485.34
2022-08-25T18:18:09.308Z,101499.16
2022-08-25T18:20:54.933Z,101499.13
2022-08-25T18:23:42.333Z,101492.03
2022-08-25T18:26:27.417Z,101498.00
2022-08-25T18:29:13.277Z,101505.66
2022-08-25T18:32:00.517Z,101510.97
2022-08-25T18:34:45.677Z,101508.31
2022-08-25T18:37:49.398Z,101508.28
2022-08-25T18:40:35.133Z,101518.84
2022-08-25T18:43:20.141Z,101527.25
2022-08-25T18:46:05.984Z,101523.72
2022-08-25T18:48:53.870Z,101521.00
2022-08-25T18:51:39.219Z,101527.84
2022-08-25T18:54:24.549Z,101530.00
2022-08-25T18:57:10.196Z,101529.31
2022-08-25T18:59:55.444Z,101506.03
2022-08-25T19:02:40.646Z,101526.03
2022-08-25T19:05:34.806Z,101525.75
2022-08-25T19:08:21.849Z,101537.03
2022-08-25T19:11:07.255Z,101528.34
2022-08-25T19:13:52.259Z,101532.59
2022-08-25T19:16:40.276Z,101546.31
2022-08-25T19:19:25.841Z,101544.66
2022-08-25T19:22:38.060Z,101540.78
2022-08-25T19:25:20.579Z,101554.72
2022-08-25T19:28:07.503Z,101557.81
2022-08-25T19:30:57.669Z,101554.25
2022-08-25T19:33:44.933Z,101563.19
2022-08-25T19:36:30.925Z,101559.00
2022-08-25T19:39:17.312Z,101567.56
2022-08-25T19:42:03.457Z,101575.53
2022-08-25T19:44:48.510Z,101568.97
2022-08-25T19:47:35.151Z,101583.25
2022-08-25T19:50:21.357Z,101583.88
2022-08-25T19:53:06.987Z,101593.69
2022-08-25T19:55:53.010Z,101583.06
2022-08-25T19:58:37.871Z,101588.81
2022-08-25T20:01:23.487Z,101591.78
2022-08-25T20:04:10.306Z,101596.00
2022-08-25T20:06:55.841Z,101598.66
2022-08-25T20:09:41.646Z,101586.13
2022-08-25T20:12:30.291Z,101610.28
2022-08-25T20:15:16.835Z,101601.31
2022-08-25T20:18:01.962Z,101598.56
2022-08-25T20:20:48.044Z,101608.06
2022-08-25T20:23:52.450Z,101609.34
2022-08-25T20:26:37.986Z,101604.47
2022-08-25T20:29:26.385Z,101605.59
2022-08-25T20:32:11.573Z,101607.72
2022-08-25T20:34:56.977Z,101599.16
2022-08-25T20:37:44.584Z,101621.97
2022-08-25T20:40:30.719Z,101616.91
2022-08-25T20:43:16.081Z,101609.38
2022-08-25T20:46:01.928Z,101606.03
2022-08-25T20:48:47.106Z,101592.16
2022-08-25T20:51:34.125Z,101602.13
2022-08-25T20:54:19.194Z,101611.06
2022-08-25T20:57:04.814Z,101606.44
2022-08-25T20:59:54.742Z,101604.63
2022-08-25T21:02:39.783Z,101606.44
2022-08-25T21:05:25.095Z,101603.78
2022-08-25T21:08:10.945Z,101595.56
2022-08-25T21:10:56.276Z,101609.28
2022-08-25T21:13:42.043Z,101607.88
2022-08-25T21:16:28.500Z,101618.50
2022-08-25T21:19:16.041Z,101622.97
2022-08-25T21:22:01.426Z,101619.63
2022-08-25T21:24:46.930Z,101620.75
2022-08-25T21:27:31.973Z,101621.59
2022-08-25T21:30:17.242Z,101621.59
2022-08-25T21:33:02.426Z,101619.06
2022-08-25T21:35:47.837Z,101613.09
2022-08-25T21:38:34.093Z,101625.78
2022-08-25T21:41:23.490Z,101620.47
2022-08-25T21:44:08.983Z,101624.84
2022-08-25T21:46:54.826Z,101622.47
2022-08-25T21:49:40.265Z,101622.47
2022-08-25T21:52:25.142Z,101614.31
2022-08-25T21:55:16.129Z,101627.75
2022-08-25T21:58:01.650Z,101621.75
2022-08-25T22:00:46.805Z,101640.34
2022-08-25T22:03:32.125Z,101638.50
2022-08-25T22:06:23.094Z,101638.38
2022-08-25T22:09:12.443Z,101637.84
2022-08-25T22:11:59.097Z,101636.16
2022-08-25T22:14:44.771Z,101635.72
2022-08-25T22:17:29.649Z,101615.72
2022-08-25T22:20:17.539Z,101633.91
2022-08-25T22:23:03.129Z,101638.09
2022-08-25T22:25:48.396Z,101629.03
2022-08-25T22:28:33.624Z,101622.56
2022-08-25T22:31:20.882Z,101640.34
2022-08-25T22:34:06.535Z,101633.50
2022-08-25T22:36:51.578Z,101636.00
2022-08-25T22:39:45.655Z,101623.56
2022-08-25T22:42:31.335Z,101633.63
2022-08-25T22:45:16.815Z,101630.53
2022-08-25T22:48:03.949Z,101630.50
2022-08-25T22:50:49.089Z,101636.63
2022-08-25T22:53:34.397Z,101639.13
2022-08-25T22:56:29.733Z,101636.44
2022-08-25T22:59:15.359Z,101637.13
2022-08-25T23:02:00.676Z,101630.41
2022-08-25T23:04:45.985Z,101635.72
2022-08-25T23:07:31.350Z,101624.66
2022-08-25T23:10:16.555Z,101611.06
2022-08-25T23:13:01.739Z,101637.63
2022-08-25T23:15:52.129Z,101630.53
2022-08-25T23:18:43.488Z,101631.19
2022-08-25T23:21:47.791Z,101641.75
2022-08-25T23:24:33.986Z,101638.09
2022-08-25T23:27:21.341Z,101634.88
2022-08-25T23:30:07.302Z,101636.63
2022-08-25T23:32:54.542Z,101643.03
2022-08-25T23:35:39.870Z,101638.69
2022-08-25T23:38:24.991Z,101643.03
2022-08-25T23:41:17.661Z,101628.72
2022-08-25T23:44:02.853Z,101641.97
2022-08-25T23:46:49.599Z,101636.47
2022-08-25T23:49:34.780Z,101625.22
2022-08-25T23:52:20.393Z,101639.34
2022-08-25T23:55:06.305Z,101645.84
2022-08-25T23:57:51.793Z,101627.47
